sensor_id;sensor_type;location;lat;lon;timestamp;pressure;altitude;pressure_sealevel;temperature;humidity
55759;BME280;41678;52.126;20.664;2023-03-25T00:02:09;99121.69;;;10.64;84.09
55759;BME280;41678;52.126;20.664;2023-03-25T00:07:30;99128.81;;;10.60;84.14
55759;BME280;41678;52.126;20.664;2023-03-25T00:12:50;99134.22;;;10.56;84.22
55759;BME280;41678;52.126;20.664;2023-03-25T00:18:09;99119.34;;;10.55;84.01
55759;BME280;41678;52.126;20.664;2023-03-25T00:23:30;99135.03;;;10.58;83.96
55759;BME280;41678;52.126;20.664;2023-03-25T00:28:50;99127.28;;;10.53;84.15
55759;BME280;41678;52.126;20.664;2023-03-25T00:34:10;99124.66;;;10.53;84.07
55759;BME280;41678;52.126;20.664;2023-03-25T00:39:33;99137.03;;;10.49;84.31
55759;BME280;41678;52.126;20.664;2023-03-25T00:44:53;99123.09;;;10.46;84.26
55759;BME280;41678;52.126;20.664;2023-03-25T00:50:15;99121.63;;;10.35;84.02
55759;BME280;41678;52.126;20.664;2023-03-25T00:55:34;99115.78;;;10.26;84.34
55759;BME280;41678;52.126;20.664;2023-03-25T01:00:54;99129.84;;;10.25;84.57
55759;BME280;41678;52.126;20.664;2023-03-25T01:06:17;99129.16;;;10.18;84.59
55759;BME280;41678;52.126;20.664;2023-03-25T01:11:42;99134.47;;;10.15;84.53
55759;BME280;41678;52.126;20.664;2023-03-25T01:17:02;99138.88;;;10.14;84.44
55759;BME280;41678;52.126;20.664;2023-03-25T01:22:23;99136.56;;;10.03;84.65
55759;BME280;41678;52.126;20.664;2023-03-25T01:27:42;99124.38;;;9.99;84.49
55759;BME280;41678;52.126;20.664;2023-03-25T01:33:02;99134.97;;;9.98;84.75
55759;BME280;41678;52.126;20.664;2023-03-25T01:38:22;99127.31;;;9.88;84.67
55759;BME280;41678;52.126;20.664;2023-03-25T01:43:58;99131.03;;;9.81;84.43
55759;BME280;41678;52.126;20.664;2023-03-25T01:49:35;99118.09;;;9.73;84.85
55759;BME280;41678;52.126;20.664;2023-03-25T01:54:57;99125.38;;;9.63;84.38
55759;BME280;41678;52.126;20.664;2023-03-25T02:00:18;99131.84;;;9.50;85.20
55759;BME280;41678;52.126;20.664;2023-03-25T02:06:08;99136.22;;;9.49;84.49
55759;BME280;41678;52.126;20.664;2023-03-25T02:11:29;99122.47;;;9.38;84.67
55759;BME280;41678;52.126;20.664;2023-03-25T02:28:00;99111.53;;;9.20;84.44
55759;BME280;41678;52.126;20.664;2023-03-25T02:49:41;99111.25;;;8.97;84.39
55759;BME280;41678;52.126;20.664;2023-03-25T02:55:05;99119.31;;;8.89;84.49
55759;BME280;41678;52.126;20.664;2023-03-25T03:00:29;99116.78;;;8.84;84.70
55759;BME280;41678;52.126;20.664;2023-03-25T03:05:51;99111.66;;;8.78;84.42
55759;BME280;41678;52.126;20.664;2023-03-25T03:11:16;99110.91;;;8.74;84.43
55759;BME280;41678;52.126;20.664;2023-03-25T03:17:05;99130.16;;;8.73;84.18
55759;BME280;41678;52.126;20.664;2023-03-25T03:28:07;99122.59;;;8.59;84.36
55759;BME280;41678;52.126;20.664;2023-03-25T03:33:43;99120.06;;;8.55;84.39
55759;BME280;41678;52.126;20.664;2023-03-25T03:39:12;99113.19;;;8.47;84.60
55759;BME280;41678;52.126;20.664;2023-03-25T03:44:37;99114.16;;;8.43;84.40
55759;BME280;41678;52.126;20.664;2023-03-25T03:50:08;99131.78;;;8.36;84.28
55759;BME280;41678;52.126;20.664;2023-03-25T03:56:06;99124.91;;;8.31;84.58
55759;BME280;41678;52.126;20.664;2023-03-25T04:01:33;99140.81;;;8.23;84.83
55759;BME280;41678;52.126;20.664;2023-03-25T04:07:03;99137.47;;;8.15;84.88
55759;BME280;41678;52.126;20.664;2023-03-25T04:12:27;99135.88;;;8.07;84.95
55759;BME280;41678;52.126;20.664;2023-03-25T04:17:47;99138.59;;;8.01;85.07
55759;BME280;41678;52.126;20.664;2023-03-25T04:23:06;99137.91;;;7.93;85.94
55759;BME280;41678;52.126;20.664;2023-03-25T04:28:28;99147.56;;;7.91;86.16
55759;BME280;41678;52.126;20.664;2023-03-25T04:33:50;99140.59;;;7.88;86.42
55759;BME280;41678;52.126;20.664;2023-03-25T04:39:10;99145.09;;;7.82;86.47
55759;BME280;41678;52.126;20.664;2023-03-25T04:44:31;99142.47;;;7.82;86.68
55759;BME280;41678;52.126;20.664;2023-03-25T04:49:57;99146.94;;;7.76;86.83
55759;BME280;41678;52.126;20.664;2023-03-25T04:55:18;99158.31;;;7.75;87.25
55759;BME280;41678;52.126;20.664;2023-03-25T05:00:40;99154.00;;;7.71;87.52
55759;BME280;41678;52.126;20.664;2023-03-25T05:06:00;99163.63;;;7.71;87.04
55759;BME280;41678;52.126;20.664;2023-03-25T05:11:19;99154.88;;;7.72;86.78
55759;BME280;41678;52.126;20.664;2023-03-25T05:16:39;99162.66;;;7.76;86.35
55759;BME280;41678;52.126;20.664;2023-03-25T05:21:59;99166.94;;;7.80;85.84
55759;BME280;41678;52.126;20.664;2023-03-25T05:27:20;99151.25;;;7.79;86.01
55759;BME280;41678;52.126;20.664;2023-03-25T05:32:40;99159.09;;;7.80;85.74
55759;BME280;41678;52.126;20.664;2023-03-25T05:38:05;99156.31;;;7.88;85.55
55759;BME280;41678;52.126;20.664;2023-03-25T05:43:26;99162.53;;;7.84;86.38
55759;BME280;41678;52.126;20.664;2023-03-25T05:48:45;99168.63;;;7.85;86.91
55759;BME280;41678;52.126;20.664;2023-03-25T05:54:05;99168.56;;;7.88;87.76
55759;BME280;41678;52.126;20.664;2023-03-25T05:59:28;99177.22;;;7.91;87.45
55759;BME280;41678;52.126;20.664;2023-03-25T06:04:48;99178.81;;;8.00;87.06
55759;BME280;41678;52.126;20.664;2023-03-25T06:10:10;99190.09;;;8.05;86.16
55759;BME280;41678;52.126;20.664;2023-03-25T06:15:30;99184.78;;;8.08;86.80
55759;BME280;41678;52.126;20.664;2023-03-25T06:20:57;99179.41;;;8.15;86.38
55759;BME280;41678;52.126;20.664;2023-03-25T06:26:17;99177.53;;;8.23;87.04
55759;BME280;41678;52.126;20.664;2023-03-25T06:31:38;99172.97;;;8.31;86.43
55759;BME280;41678;52.126;20.664;2023-03-25T06:36:58;99170.25;;;8.36;86.64
55759;BME280;41678;52.126;20.664;2023-03-25T06:42:18;99172.72;;;8.44;86.22
55759;BME280;41678;52.126;20.664;2023-03-25T06:47:51;99170.03;;;8.47;87.25
55759;BME280;41678;52.126;20.664;2023-03-25T06:53:10;99156.00;;;8.51;87.40
55759;BME280;41678;52.126;20.664;2023-03-25T06:58:30;99162.84;;;8.58;87.60
55759;BME280;41678;52.126;20.664;2023-03-25T07:03:53;99158.41;;;8.62;87.71
55759;BME280;41678;52.126;20.664;2023-03-25T07:09:13;99163.47;;;8.70;87.20
55759;BME280;41678;52.126;20.664;2023-03-25T07:14:32;99171.75;;;8.90;87.43
55759;BME280;41678;52.126;20.664;2023-03-25T07:19:51;99158.63;;;8.90;87.48
55759;BME280;41678;52.126;20.664;2023-03-25T07:25:11;99166.31;;;9.00;87.53
55759;BME280;41678;52.126;20.664;2023-03-25T07:30:31;99167.84;;;9.10;87.72
55759;BME280;41678;52.126;20.664;2023-03-25T07:35:51;99170.22;;;9.19;88.03
55759;BME280;41678;52.126;20.664;2023-03-25T07:41:12;99163.97;;;9.25;87.69
55759;BME280;41678;52.126;20.664;2023-03-25T07:46:39;99177.53;;;9.44;87.93
55759;BME280;41678;52.126;20.664;2023-03-25T07:51:59;99179.91;;;9.54;88.11
55759;BME280;41678;52.126;20.664;2023-03-25T07:57:19;99184.03;;;9.64;87.99
55759;BME280;41678;52.126;20.664;2023-03-25T08:02:39;99172.13;;;9.84;87.46
55759;BME280;41678;52.126;20.664;2023-03-25T08:07:59;99163.69;;;10.05;88.21
55759;BME280;41678;52.126;20.664;2023-03-25T08:13:19;99160.53;;;10.24;87.91
55759;BME280;41678;52.126;20.664;2023-03-25T08:18:39;99162.72;;;10.41;88.04
55759;BME280;41678;52.126;20.664;2023-03-25T08:24:03;99157.59;;;10.67;87.91
55759;BME280;41678;52.126;20.664;2023-03-25T08:29:29;99155.94;;;10.93;87.96
55759;BME280;41678;52.126;20.664;2023-03-25T08:34:54;99156.38;;;11.07;88.07
55759;BME280;41678;52.126;20.664;2023-03-25T08:40:14;99160.38;;;11.19;87.51
55759;BME280;41678;52.126;20.664;2023-03-25T08:45:37;99156.47;;;11.31;87.69
55759;BME280;41678;52.126;20.664;2023-03-25T08:50:57;99157.09;;;11.39;87.41
55759;BME280;41678;52.126;20.664;2023-03-25T08:56:16;99156.66;;;11.52;87.19
55759;BME280;41678;52.126;20.664;2023-03-25T09:01:36;99159.00;;;11.61;86.86
55759;BME280;41678;52.126;20.664;2023-03-25T09:06:56;99163.06;;;11.71;86.16
55759;BME280;41678;52.126;20.664;2023-03-25T09:12:15;99152.50;;;11.71;86.24
55759;BME280;41678;52.126;20.664;2023-03-25T09:17:35;99156.59;;;11.80;86.33
55759;BME280;41678;52.126;20.664;2023-03-25T09:22:55;99151.06;;;11.88;85.28
55759;BME280;41678;52.126;20.664;2023-03-25T09:28:15;99147.47;;;11.90;84.61
55759;BME280;41678;52.126;20.664;2023-03-25T09:33:35;99141.03;;;11.98;84.49
55759;BME280;41678;52.126;20.664;2023-03-25T09:38:55;99134.84;;;11.99;84.22
55759;BME280;41678;52.126;20.664;2023-03-25T09:44:25;99155.75;;;12.05;84.33
55759;BME280;41678;52.126;20.664;2023-03-25T09:49:49;99157.38;;;12.09;83.66
55759;BME280;41678;52.126;20.664;2023-03-25T09:55:18;99159.84;;;12.14;84.16
55759;BME280;41678;52.126;20.664;2023-03-25T10:00:40;99148.03;;;12.24;83.59
55759;BME280;41678;52.126;20.664;2023-03-25T10:06:15;99148.38;;;12.39;83.66
55759;BME280;41678;52.126;20.664;2023-03-25T10:11:45;99142.97;;;12.42;83.89
55759;BME280;41678;52.126;20.664;2023-03-25T10:28:29;99117.72;;;12.58;82.25
55759;BME280;41678;52.126;20.664;2023-03-25T10:33:56;99121.56;;;12.73;81.36
55759;BME280;41678;52.126;20.664;2023-03-25T10:39:20;99124.81;;;12.80;81.19
55759;BME280;41678;52.126;20.664;2023-03-25T10:44:40;99113.94;;;12.88;81.41
55759;BME280;41678;52.126;20.664;2023-03-25T10:50:00;99113.81;;;12.91;81.50
55759;BME280;41678;52.126;20.664;2023-03-25T10:55:23;99090.38;;;13.04;80.45
55759;BME280;41678;52.126;20.664;2023-03-25T11:00:44;99097.44;;;13.05;79.62
55759;BME280;41678;52.126;20.664;2023-03-25T11:06:05;99082.41;;;13.06;80.68
55759;BME280;41678;52.126;20.664;2023-03-25T11:11:32;99076.19;;;13.07;80.24
55759;BME280;41678;52.126;20.664;2023-03-25T11:16:55;99075.47;;;13.03;80.41
55759;BME280;41678;52.126;20.664;2023-03-25T11:22:18;99069.47;;;12.99;80.79
55759;BME280;41678;52.126;20.664;2023-03-25T11:27:46;99061.47;;;13.01;81.18
55759;BME280;41678;52.126;20.664;2023-03-25T11:33:13;99058.03;;;12.99;80.67
55759;BME280;41678;52.126;20.664;2023-03-25T11:38:37;99052.88;;;12.96;80.92
55759;BME280;41678;52.126;20.664;2023-03-25T11:43:56;99054.47;;;13.00;80.67
55759;BME280;41678;52.126;20.664;2023-03-25T11:49:19;99054.22;;;13.06;80.33
55759;BME280;41678;52.126;20.664;2023-03-25T11:54:40;99038.47;;;13.03;80.36
55759;BME280;41678;52.126;20.664;2023-03-25T12:00:04;99031.59;;;12.99;80.35
55759;BME280;41678;52.126;20.664;2023-03-25T12:05:33;99034.91;;;13.04;79.94
55759;BME280;41678;52.126;20.664;2023-03-25T12:10:58;99039.16;;;13.08;79.99
55759;BME280;41678;52.126;20.664;2023-03-25T12:22:03;99029.25;;;13.13;79.52
55759;BME280;41678;52.126;20.664;2023-03-25T12:33:35;99021.25;;;13.15;78.69
55759;BME280;41678;52.126;20.664;2023-03-25T12:50:54;99028.31;;;12.94;80.05
55759;BME280;41678;52.126;20.664;2023-03-25T13:01:50;99026.59;;;12.70;80.38
55759;BME280;41678;52.126;20.664;2023-03-25T13:07:16;99037.47;;;12.63;80.23
55759;BME280;41678;52.126;20.664;2023-03-25T13:12:42;99028.47;;;12.46;81.03
55759;BME280;41678;52.126;20.664;2023-03-25T13:18:07;99025.81;;;12.46;80.75
55759;BME280;41678;52.126;20.664;2023-03-25T13:23:32;99005.09;;;12.35;81.21
55759;BME280;41678;52.126;20.664;2023-03-25T13:28:59;98997.88;;;12.40;81.19
55759;BME280;41678;52.126;20.664;2023-03-25T13:34:23;98990.75;;;12.42;81.40
55759;BME280;41678;52.126;20.664;2023-03-25T13:51:08;98975.53;;;12.49;81.71
55759;BME280;41678;52.126;20.664;2023-03-25T14:14:07;98979.38;;;12.63;80.40
55759;BME280;41678;52.126;20.664;2023-03-25T14:19:42;98976.75;;;12.63;80.05
55759;BME280;41678;52.126;20.664;2023-03-25T14:25:02;98975.69;;;12.67;80.02
55759;BME280;41678;52.126;20.664;2023-03-25T14:30:29;99016.28;;;12.64;79.38
55759;BME280;41678;52.126;20.664;2023-03-25T14:35:55;99036.22;;;12.27;76.61
55759;BME280;41678;52.126;20.664;2023-03-25T14:41:15;99041.97;;;11.90;75.43
55759;BME280;41678;52.126;20.664;2023-03-25T14:46:36;99072.59;;;11.69;75.90
55759;BME280;41678;52.126;20.664;2023-03-25T14:51:56;99068.97;;;11.46;77.35
55759;BME280;41678;52.126;20.664;2023-03-25T14:57:17;99079.00;;;11.37;78.10
55759;BME280;41678;52.126;20.664;2023-03-25T15:02:52;99074.47;;;11.15;78.84
55759;BME280;41678;52.126;20.664;2023-03-25T15:08:25;99064.75;;;10.88;79.21
55759;BME280;41678;52.126;20.664;2023-03-25T15:13:54;99065.00;;;10.81;79.80
55759;BME280;41678;52.126;20.664;2023-03-25T15:19:17;99056.22;;;10.53;80.04
55759;BME280;41678;52.126;20.664;2023-03-25T15:24:38;99026.63;;;10.45;80.17
55759;BME280;41678;52.126;20.664;2023-03-25T15:30:16;99005.97;;;10.32;80.55
55759;BME280;41678;52.126;20.664;2023-03-25T15:36:00;99005.47;;;10.19;81.72
55759;BME280;41678;52.126;20.664;2023-03-25T16:09:47;99027.84;;;10.04;82.77
55759;BME280;41678;52.126;20.664;2023-03-25T16:15:13;99039.41;;;9.99;83.13
55759;BME280;41678;52.126;20.664;2023-03-25T16:20:35;99037.44;;;10.05;82.56
55759;BME280;41678;52.126;20.664;2023-03-25T16:25:55;99027.09;;;9.99;82.40
55759;BME280;41678;52.126;20.664;2023-03-25T16:31:30;99018.69;;;9.88;82.85
55759;BME280;41678;52.126;20.664;2023-03-25T16:36:51;99019.63;;;9.85;82.67
55759;BME280;41678;52.126;20.664;2023-03-25T16:42:31;99013.81;;;9.74;82.48
55759;BME280;41678;52.126;20.664;2023-03-25T16:47:54;99026.13;;;9.72;82.52
55759;BME280;41678;52.126;20.664;2023-03-25T16:53:15;99021.91;;;9.66;82.42
55759;BME280;41678;52.126;20.664;2023-03-25T16:58:49;99040.41;;;9.61;82.41
55759;BME280;41678;52.126;20.664;2023-03-25T17:04:17;99038.09;;;9.50;82.40
55759;BME280;41678;52.126;20.664;2023-03-25T17:09:38;99045.25;;;9.45;82.31
55759;BME280;41678;52.126;20.664;2023-03-25T17:15:04;99061.81;;;9.49;82.75
55759;BME280;41678;52.126;20.664;2023-03-25T17:20:35;99060.94;;;9.48;82.76
55759;BME280;41678;52.126;20.664;2023-03-25T17:25:59;99056.59;;;9.46;82.96
55759;BME280;41678;52.126;20.664;2023-03-25T17:31:46;99059.28;;;9.44;82.94
55759;BME280;41678;52.126;20.664;2023-03-25T17:37:12;99036.97;;;9.28;83.14
55759;BME280;41678;52.126;20.664;2023-03-25T17:42:34;99038.81;;;9.23;83.16
55759;BME280;41678;52.126;20.664;2023-03-25T17:47:54;99044.03;;;9.26;83.02
55759;BME280;41678;52.126;20.664;2023-03-25T17:53:14;99053.69;;;9.24;82.89
55759;BME280;41678;52.126;20.664;2023-03-25T17:58:34;99057.28;;;9.21;82.93
55759;BME280;41678;52.126;20.664;2023-03-25T18:03:54;99052.13;;;9.16;83.10
55759;BME280;41678;52.126;20.664;2023-03-25T18:09:20;99065.47;;;9.07;83.83
55759;BME280;41678;52.126;20.664;2023-03-25T18:14:40;99075.06;;;9.10;83.32
55759;BME280;41678;52.126;20.664;2023-03-25T18:20:11;99082.84;;;9.13;83.42
55759;BME280;41678;52.126;20.664;2023-03-25T18:25:32;99080.34;;;9.08;83.62
55759;BME280;41678;52.126;20.664;2023-03-25T18:30:54;99116.59;;;9.28;83.44
55759;BME280;41678;52.126;20.664;2023-03-25T18:36:15;99114.03;;;9.27;84.49
55759;BME280;41678;52.126;20.664;2023-03-25T18:41:35;99114.16;;;9.22;84.31
55759;BME280;41678;52.126;20.664;2023-03-25T18:46:55;99103.03;;;9.11;84.25
55759;BME280;41678;52.126;20.664;2023-03-25T18:52:14;99096.84;;;9.13;84.19
55759;BME280;41678;52.126;20.664;2023-03-25T18:57:34;99107.44;;;9.10;84.40
55759;BME280;41678;52.126;20.664;2023-03-25T19:02:56;99095.56;;;8.93;84.29
55759;BME280;41678;52.126;20.664;2023-03-25T19:08:18;99093.16;;;8.84;83.81
55759;BME280;41678;52.126;20.664;2023-03-25T19:13:38;99082.94;;;8.72;84.29
55759;BME280;41678;52.126;20.664;2023-03-25T19:18:57;99081.38;;;8.64;83.78
55759;BME280;41678;52.126;20.664;2023-03-25T19:24:18;99092.09;;;8.54;84.05
55759;BME280;41678;52.126;20.664;2023-03-25T19:29:38;99080.75;;;8.53;83.71
55759;BME280;41678;52.126;20.664;2023-03-25T19:34:57;99086.06;;;8.48;84.54
55759;BME280;41678;52.126;20.664;2023-03-25T19:40:20;99079.19;;;8.43;84.79
55759;BME280;41678;52.126;20.664;2023-03-25T19:45:40;99074.13;;;8.33;85.15
55759;BME280;41678;52.126;20.664;2023-03-25T19:51:00;99055.09;;;8.27;84.99
55759;BME280;41678;52.126;20.664;2023-03-25T19:56:20;99068.16;;;8.28;85.35
55759;BME280;41678;52.126;20.664;2023-03-25T20:01:40;99063.94;;;8.21;85.25
55759;BME280;41678;52.126;20.664;2023-03-25T20:06:59;99059.75;;;8.12;85.35
55759;BME280;41678;52.126;20.664;2023-03-25T20:12:19;99050.31;;;8.03;85.16
55759;BME280;41678;52.126;20.664;2023-03-25T20:17:39;99047.13;;;7.89;85.46
55759;BME280;41678;52.126;20.664;2023-03-25T20:22:59;99062.19;;;7.77;86.18
55759;BME280;41678;52.126;20.664;2023-03-25T20:28:19;99060.50;;;7.73;85.96
55759;BME280;41678;52.126;20.664;2023-03-25T20:33:38;99057.25;;;7.62;86.34
55759;BME280;41678;52.126;20.664;2023-03-25T20:38:58;99059.94;;;7.59;86.06
55759;BME280;41678;52.126;20.664;2023-03-25T20:44:19;99063.50;;;7.55;86.02
55759;BME280;41678;52.126;20.664;2023-03-25T20:49:40;99050.53;;;7.48;85.22
55759;BME280;41678;52.126;20.664;2023-03-25T20:55:00;99056.66;;;7.47;84.95
55759;BME280;41678;52.126;20.664;2023-03-25T21:00:20;99063.72;;;7.42;85.23
55759;BME280;41678;52.126;20.664;2023-03-25T21:05:39;99049.16;;;7.29;84.87
55759;BME280;41678;52.126;20.664;2023-03-25T21:11:00;99057.00;;;7.29;85.16
55759;BME280;41678;52.126;20.664;2023-03-25T21:16:20;99056.31;;;7.17;85.28
55759;BME280;41678;52.126;20.664;2023-03-25T21:21:40;99058.13;;;7.14;85.42
55759;BME280;41678;52.126;20.664;2023-03-25T21:26:59;99053.91;;;7.05;85.51
55759;BME280;41678;52.126;20.664;2023-03-25T21:32:19;99047.78;;;7.04;85.13
55759;BME280;41678;52.126;20.664;2023-03-25T21:37:39;99052.19;;;7.04;85.30
55759;BME280;41678;52.126;20.664;2023-03-25T21:42:58;99048.78;;;6.99;85.90
55759;BME280;41678;52.126;20.664;2023-03-25T21:48:18;99046.25;;;6.94;85.78
55759;BME280;41678;52.126;20.664;2023-03-25T21:53:39;99051.53;;;6.91;85.50
55759;BME280;41678;52.126;20.664;2023-03-25T21:59:02;99037.56;;;6.92;85.16
55759;BME280;41678;52.126;20.664;2023-03-25T22:04:22;99041.91;;;6.91;85.41
55759;BME280;41678;52.126;20.664;2023-03-25T22:09:43;99045.34;;;6.95;85.22
55759;BME280;41678;52.126;20.664;2023-03-25T22:15:02;99045.28;;;7.00;85.39
55759;BME280;41678;52.126;20.664;2023-03-25T22:20:22;99046.88;;;7.07;85.14
55759;BME280;41678;52.126;20.664;2023-03-25T22:25:43;99057.34;;;7.07;84.95
55759;BME280;41678;52.126;20.664;2023-03-25T22:31:18;99054.59;;;7.15;85.47
55759;BME280;41678;52.126;20.664;2023-03-25T22:36:40;99065.00;;;7.21;85.22
55759;BME280;41678;52.126;20.664;2023-03-25T22:42:01;99058.94;;;7.16;84.96
55759;BME280;41678;52.126;20.664;2023-03-25T22:47:21;99048.47;;;7.16;85.09
55759;BME280;41678;52.126;20.664;2023-03-25T22:52:40;99053.66;;;7.19;84.88
55759;BME280;41678;52.126;20.664;2023-03-25T22:58:00;99055.31;;;7.25;85.13
55759;BME280;41678;52.126;20.664;2023-03-25T23:03:21;99056.13;;;7.27;84.91
55759;BME280;41678;52.126;20.664;2023-03-25T23:08:41;99047.50;;;7.23;84.99
55759;BME280;41678;52.126;20.664;2023-03-25T23:14:09;99042.22;;;7.25;84.87
55759;BME280;41678;52.126;20.664;2023-03-25T23:19:31;99050.06;;;7.26;85.49
55759;BME280;41678;52.126;20.664;2023-03-25T23:24:51;99044.94;;;7.18;85.29
55759;BME280;41678;52.126;20.664;2023-03-25T23:30:10;99049.34;;;7.16;85.04
55759;BME280;41678;52.126;20.664;2023-03-25T23:35:30;99048.56;;;7.11;85.15
55759;BME280;41678;52.126;20.664;2023-03-25T23:40:57;99062.53;;;7.10;85.36
55759;BME280;41678;52.126;20.664;2023-03-25T23:46:18;99057.47;;;7.01;85.32
55759;BME280;41678;52.126;20.664;2023-03-25T23:51:40;99054.03;;;6.95;85.53
55759;BME280;41678;52.126;20.664;2023-03-25T23:57:00;99051.41;;;6.97;85.22
